createdAt,value
2023-04-15T00:03:08.548Z,70.10
2023-04-15T00:08:11.516Z,70.27
2023-04-15T00:13:15.496Z,70.26
2023-04-15T00:18:18.297Z,70.22
2023-04-15T00:23:21.340Z,70.49
2023-04-15T00:28:24.142Z,70.58
2023-04-15T00:33:26.845Z,70.48
2023-04-15T00:38:29.786Z,70.31
2023-04-15T00:43:32.527Z,70.57
2023-04-15T00:48:35.856Z,70.67
2023-04-15T00:53:38.560Z,70.88
2023-04-15T00:58:42.059Z,70.91
2023-04-15T01:03:45.165Z,70.98
2023-04-15T01:08:48.305Z,70.88
2023-04-15T01:13:52.134Z,70.97
2023-04-15T01:18:55.773Z,71.01
2023-04-15T01:23:59.493Z,71.01
2023-04-15T01:29:02.436Z,70.97
2023-04-15T01:34:05.333Z,71.20
2023-04-15T01:39:08.407Z,71.29
2023-04-15T01:44:11.188Z,71.47
2023-04-15T01:49:13.908Z,71.73
2023-04-15T01:54:16.672Z,71.62
2023-04-15T01:59:19.342Z,71.72
2023-04-15T02:04:22.120Z,71.66
2023-04-15T02:09:24.981Z,71.89
2023-04-15T02:14:27.620Z,72.00
2023-04-15T02:19:30.296Z,72.08
2023-04-15T02:24:33.480Z,72.30
2023-04-15T02:29:36.215Z,72.39
2023-04-15T02:34:41.405Z,72.44
2023-04-15T02:39:44.063Z,72.46
2023-04-15T02:44:46.730Z,72.62
2023-04-15T02:49:49.561Z,72.95
2023-04-15T02:54:53.316Z,72.77
2023-04-15T02:59:55.978Z,72.84
2023-04-15T03:04:58.653Z,72.99
2023-04-15T03:10:01.382Z,73.02
2023-04-15T03:15:04.344Z,72.91
2023-04-15T03:20:07.510Z,73.05
2023-04-15T03:25:10.269Z,72.84
2023-04-15T03:30:13.484Z,72.90
2023-04-15T03:35:16.532Z,72.62
2023-04-15T03:40:21.696Z,72.64
2023-04-15T03:45:24.452Z,72.60
2023-04-15T03:50:27.794Z,72.57
2023-04-15T03:55:30.566Z,72.36
2023-04-15T04:00:33.289Z,72.61
2023-04-15T04:05:39.035Z,72.52
2023-04-15T04:10:42.410Z,72.43
2023-04-15T04:15:45.105Z,72.70
2023-04-15T04:20:47.883Z,72.64
2023-04-15T04:25:50.549Z,72.46
2023-04-15T04:30:53.252Z,72.43
2023-04-15T04:35:56.190Z,72.53
2023-04-15T04:40:58.949Z,72.54
2023-04-15T04:46:01.856Z,72.39
2023-04-15T04:51:05.054Z,72.22
2023-04-15T04:56:07.739Z,72.15
2023-04-15T05:01:10.690Z,72.14
2023-04-15T05:06:13.411Z,71.92
2023-04-15T05:11:16.221Z,71.74
2023-04-15T05:16:20.010Z,71.90
2023-04-15T05:21:23.354Z,71.82
2023-04-15T05:26:27.565Z,71.46
2023-04-15T05:31:30.300Z,71.52
2023-04-15T05:36:33.024Z,71.65
2023-04-15T05:41:36.086Z,71.65
2023-04-15T05:46:38.963Z,71.67
2023-04-15T05:51:42.208Z,71.64
2023-04-15T05:56:44.877Z,71.79
2023-04-15T06:01:47.626Z,71.78
2023-04-15T06:06:50.401Z,71.79
2023-04-15T06:11:53.521Z,71.95
2023-04-15T06:16:56.419Z,71.55
2023-04-15T06:21:59.413Z,71.39
2023-04-15T06:27:02.379Z,71.34
2023-04-15T06:32:05.284Z,70.91
2023-04-15T06:37:10.037Z,70.89
2023-04-15T06:42:12.754Z,70.34
2023-04-15T06:47:15.453Z,70.12
2023-04-15T06:52:18.484Z,70.20
2023-04-15T06:57:21.259Z,69.69
2023-04-15T07:02:24.467Z,70.01
2023-04-15T07:07:27.748Z,69.68
2023-04-15T07:12:30.637Z,69.66
2023-04-15T07:17:33.445Z,69.48
2023-04-15T07:22:36.201Z,69.51
2023-04-15T07:27:38.940Z,69.33
2023-04-15T07:32:42.455Z,69.29
2023-04-15T07:37:45.186Z,69.68
2023-04-15T07:42:49.491Z,69.23
2023-04-15T07:47:52.423Z,69.38
2023-04-15T07:52:55.308Z,69.51
2023-04-15T07:57:57.965Z,69.39
2023-04-15T08:03:00.862Z,69.41
2023-04-15T08:08:03.632Z,69.64
2023-04-15T08:13:06.736Z,69.37
2023-04-15T08:18:09.523Z,69.74
2023-04-15T08:23:12.239Z,69.69
2023-04-15T08:28:14.927Z,69.54
2023-04-15T08:33:17.626Z,69.39
2023-04-15T08:38:20.311Z,69.27
2023-04-15T08:43:28.525Z,69.10
2023-04-15T08:48:35.047Z,68.97
2023-04-15T08:53:37.730Z,68.92
2023-04-15T08:58:40.934Z,68.98
2023-04-15T09:03:44.491Z,68.87
2023-04-15T09:08:47.823Z,68.73
2023-04-15T09:13:50.895Z,69.11
2023-04-15T09:18:53.831Z,68.97
2023-04-15T09:24:00.683Z,69.15
2023-04-15T09:29:09.362Z,68.98
2023-04-15T09:34:12.530Z,69.48
2023-04-15T09:39:16.198Z,69.36
2023-04-15T09:44:26.334Z,69.11
2023-04-15T09:49:29.151Z,69.59
2023-04-15T09:54:38.888Z,69.41
2023-04-15T09:59:41.662Z,69.52
2023-04-15T10:04:45.485Z,69.67
2023-04-15T10:09:52.000Z,69.69
2023-04-15T10:14:59.605Z,69.79
2023-04-15T10:20:04.939Z,70.12
2023-04-15T10:25:08.342Z,70.55
2023-04-15T10:30:12.221Z,70.56
2023-04-15T10:35:15.863Z,70.81
2023-04-15T10:40:27.761Z,70.98
2023-04-15T10:45:36.862Z,70.78
2023-04-15T10:50:39.870Z,70.75
2023-04-15T10:55:42.706Z,70.67
2023-04-15T11:00:54.928Z,71.06
2023-04-15T11:05:58.158Z,71.31
2023-04-15T11:11:00.835Z,71.29
2023-04-15T11:16:03.847Z,71.11
2023-04-15T11:21:07.906Z,71.32
2023-04-15T11:26:12.419Z,71.70
2023-04-15T11:31:18.470Z,71.86
2023-04-15T11:36:21.280Z,71.59
2023-04-15T11:41:24.345Z,71.83
2023-04-15T11:46:31.782Z,71.70
2023-04-15T11:51:35.519Z,71.89
2023-04-15T11:56:38.223Z,72.03
2023-04-15T12:01:42.339Z,72.39
2023-04-15T12:06:45.791Z,73.06
2023-04-15T12:11:53.859Z,73.52
2023-04-15T12:17:06.243Z,73.91
2023-04-15T12:22:10.381Z,74.05
2023-04-15T12:27:14.211Z,74.48
2023-04-15T12:32:20.844Z,74.70
2023-04-15T12:37:24.002Z,75.35
2023-04-15T12:42:27.437Z,75.40
2023-04-15T12:47:30.336Z,75.77
2023-04-15T12:52:33.587Z,76.09
2023-04-15T12:57:36.836Z,76.03
2023-04-15T13:02:39.699Z,76.22
2023-04-15T13:07:42.717Z,76.32
2023-04-15T13:12:47.013Z,76.48
2023-04-15T13:17:50.675Z,76.66
2023-04-15T13:22:53.884Z,76.85
2023-04-15T13:27:57.699Z,76.86
2023-04-15T13:33:00.697Z,77.09
2023-04-15T13:38:03.452Z,77.36
2023-04-15T13:43:06.123Z,77.36
2023-04-15T13:48:08.771Z,77.07
2023-04-15T13:53:14.498Z,76.99
2023-04-15T13:58:17.210Z,76.58
2023-04-15T14:03:20.082Z,76.56
2023-04-15T14:08:23.247Z,76.62
2023-04-15T14:13:25.951Z,76.83
2023-04-15T14:18:29.980Z,77.16
2023-04-15T14:23:32.750Z,77.36
2023-04-15T14:28:35.496Z,77.68
2023-04-15T14:33:38.130Z,77.88
2023-04-15T14:38:41.182Z,78.11
2023-04-15T14:43:43.868Z,78.04
2023-04-15T14:48:46.727Z,78.05
2023-04-15T14:53:49.387Z,78.18
2023-04-15T14:58:53.779Z,78.46
2023-04-15T15:03:56.691Z,78.59
2023-04-15T15:08:59.423Z,78.74
2023-04-15T15:14:02.106Z,78.86
2023-04-15T15:19:05.303Z,78.87
2023-04-15T15:24:08.206Z,79.25
2023-04-15T15:29:10.936Z,79.10
2023-04-15T15:34:13.623Z,79.34
2023-04-15T15:39:16.518Z,79.48
2023-04-15T15:44:19.214Z,79.64
2023-04-15T15:49:21.901Z,79.70
2023-04-15T15:54:25.386Z,79.78
2023-04-15T15:59:28.125Z,80.17
2023-04-15T16:04:31.157Z,80.28
2023-04-15T16:09:34.526Z,80.37
2023-04-15T16:14:37.242Z,80.49
2023-04-15T16:19:39.967Z,80.78
2023-04-15T16:25:02.383Z,80.78
2023-04-15T16:30:06.030Z,80.70
2023-04-15T16:35:09.320Z,80.80
2023-04-15T16:40:12.369Z,80.71
2023-04-15T16:45:15.375Z,80.92
2023-04-15T16:50:18.070Z,81.10
2023-04-15T16:55:21.025Z,80.89
2023-04-15T17:00:23.743Z,81.16
2023-04-15T17:05:30.775Z,81.16
2023-04-15T17:10:33.506Z,81.32
2023-04-15T17:15:36.289Z,81.71
2023-04-15T17:20:39.526Z,81.64
2023-04-15T17:25:42.209Z,81.56
2023-04-15T17:30:45.428Z,81.87
2023-04-15T17:35:48.112Z,82.00
2023-04-15T17:40:50.759Z,82.40
2023-04-15T17:45:53.499Z,82.29
2023-04-15T17:50:56.193Z,82.59
2023-04-15T17:55:59.190Z,82.77
2023-04-15T18:01:01.974Z,82.61
2023-04-15T18:06:04.956Z,82.41
2023-04-15T18:11:07.954Z,82.42
2023-04-15T18:16:10.711Z,82.66
2023-04-15T18:21:13.894Z,82.48
2023-04-15T18:26:16.748Z,82.73
2023-04-15T18:31:19.469Z,82.80
2023-04-15T18:36:22.193Z,82.68
2023-04-15T18:41:27.462Z,82.51
2023-04-15T18:46:30.231Z,82.47
2023-04-15T18:51:32.860Z,82.76
2023-04-15T18:56:35.606Z,82.78
2023-04-15T19:01:38.326Z,82.83
2023-04-15T19:06:41.068Z,82.60
2023-04-15T19:11:44.065Z,82.66
2023-04-15T19:16:46.760Z,83.07
2023-04-15T19:21:50.309Z,83.04
2023-04-15T19:26:53.157Z,83.22
2023-04-15T19:31:56.070Z,83.39
2023-04-15T19:36:58.791Z,83.33
2023-04-15T19:42:02.874Z,83.34
2023-04-15T19:47:05.814Z,83.54
2023-04-15T19:52:08.631Z,83.72
2023-04-15T19:57:11.296Z,83.71
2023-04-15T20:02:14.117Z,83.68
2023-04-15T20:07:16.856Z,83.89
2023-04-15T20:12:50.450Z,84.44
2023-04-15T20:17:42.343Z,84.24
2023-04-15T20:22:45.041Z,84.06
2023-04-15T20:27:47.827Z,84.23
2023-04-15T20:32:50.591Z,84.38
2023-04-15T20:37:53.773Z,84.53
2023-04-15T20:42:56.594Z,84.59
2023-04-15T20:47:59.332Z,84.59
2023-04-15T20:53:02.544Z,84.50
2023-04-15T20:58:05.208Z,84.68
2023-04-15T21:03:07.974Z,84.66
2023-04-15T21:08:10.770Z,84.51
2023-04-15T21:13:15.303Z,84.76
2023-04-15T21:18:18.014Z,84.52
2023-04-15T21:23:20.744Z,84.57
2023-04-15T21:28:23.503Z,84.71
2023-04-15T21:33:27.167Z,84.85
2023-04-15T21:38:29.835Z,84.80
2023-04-15T21:43:32.493Z,84.68
2023-04-15T21:48:35.433Z,84.59
2023-04-15T21:53:38.886Z,84.57
2023-04-15T21:58:41.626Z,84.81
2023-04-15T22:03:44.565Z,85.03
2023-04-15T22:08:56.045Z,84.90
2023-04-15T22:13:59.946Z,84.89
2023-04-15T22:19:02.697Z,84.75
2023-04-15T22:24:38.537Z,85.04
2023-04-15T22:29:28.508Z,84.98
2023-04-15T22:34:31.187Z,85.08
2023-04-15T22:39:33.872Z,85.08
2023-04-15T22:44:36.582Z,85.01
2023-04-15T22:49:39.546Z,85.11
2023-04-15T22:54:42.193Z,85.25
2023-04-15T22:59:44.858Z,85.45
2023-04-15T23:04:47.601Z,85.24
2023-04-15T23:09:50.603Z,85.13
2023-04-15T23:14:53.272Z,85.08
2023-04-15T23:19:55.992Z,85.16
2023-04-15T23:24:58.670Z,85.43
2023-04-15T23:30:01.418Z,85.41
2023-04-15T23:35:05.041Z,85.29
2023-04-15T23:40:08.338Z,85.36
2023-04-15T23:45:11.616Z,85.37
2023-04-15T23:50:14.281Z,85.57
2023-04-15T23:55:17.026Z,85.42
